sensor_id;sensor_type;location;lat;lon;timestamp;temperature;humidity
4366;DHT22;2196;47.422;9.656;2023-01-08T00:01:15;2.80;99.90
4366;DHT22;2196;47.422;9.656;2023-01-08T00:03:42;2.70;99.90
4366;DHT22;2196;47.422;9.656;2023-01-08T00:06:11;2.60;99.90
4366;DHT22;2196;47.422;9.656;2023-01-08T00:08:41;2.50;99.90
4366;DHT22;2196;47.422;9.656;2023-01-08T00:11:08;2.40;99.90
4366;DHT22;2196;47.422;9.656;2023-01-08T00:13:35;2.30;99.90
4366;DHT22;2196;47.422;9.656;2023-01-08T00:16:04;2.30;99.90
4366;DHT22;2196;47.422;9.656;2023-01-08T00:18:32;2.40;99.90
4366;DHT22;2196;47.422;9.656;2023-01-08T00:20:59;2.40;99.90
4366;DHT22;2196;47.422;9.656;2023-01-08T00:23:28;2.40;99.90
4366;DHT22;2196;47.422;9.656;2023-01-08T00:25:56;2.40;99.90
4366;DHT22;2196;47.422;9.656;2023-01-08T00:28:26;2.40;99.90
4366;DHT22;2196;47.422;9.656;2023-01-08T00:30:53;2.40;99.90
4366;DHT22;2196;47.422;9.656;2023-01-08T00:33:20;2.30;99.90
4366;DHT22;2196;47.422;9.656;2023-01-08T00:35:47;2.40;99.90
4366;DHT22;2196;47.422;9.656;2023-01-08T00:38:14;2.50;99.90
4366;DHT22;2196;47.422;9.656;2023-01-08T00:40:41;2.50;99.90
4366;DHT22;2196;47.422;9.656;2023-01-08T00:43:09;2.30;99.90
4366;DHT22;2196;47.422;9.656;2023-01-08T00:45:36;2.20;99.90
4366;DHT22;2196;47.422;9.656;2023-01-08T00:48:04;2.10;99.90
4366;DHT22;2196;47.422;9.656;2023-01-08T00:50:31;2.00;99.90
4366;DHT22;2196;47.422;9.656;2023-01-08T00:52:58;2.10;99.90
4366;DHT22;2196;47.422;9.656;2023-01-08T00:55:25;2.10;99.90
4366;DHT22;2196;47.422;9.656;2023-01-08T00:57:52;2.00;99.90
4366;DHT22;2196;47.422;9.656;2023-01-08T01:00:21;2.00;99.90
4366;DHT22;2196;47.422;9.656;2023-01-08T01:02:48;2.00;99.90
4366;DHT22;2196;47.422;9.656;2023-01-08T01:05:15;2.00;99.90
4366;DHT22;2196;47.422;9.656;2023-01-08T01:07:43;1.90;99.90
4366;DHT22;2196;47.422;9.656;2023-01-08T01:10:11;2.00;99.90
4366;DHT22;2196;47.422;9.656;2023-01-08T01:12:39;2.00;99.90
4366;DHT22;2196;47.422;9.656;2023-01-08T01:15:08;2.10;99.90
4366;DHT22;2196;47.422;9.656;2023-01-08T01:17:57;2.00;99.90
4366;DHT22;2196;47.422;9.656;2023-01-08T01:20:24;2.00;99.90
4366;DHT22;2196;47.422;9.656;2023-01-08T01:22:51;1.90;99.90
4366;DHT22;2196;47.422;9.656;2023-01-08T01:25:18;1.80;99.90
4366;DHT22;2196;47.422;9.656;2023-01-08T01:27:45;1.80;99.90
4366;DHT22;2196;47.422;9.656;2023-01-08T01:30:12;1.70;99.90
4366;DHT22;2196;47.422;9.656;2023-01-08T01:32:39;1.70;99.90
4366;DHT22;2196;47.422;9.656;2023-01-08T01:35:08;1.60;99.90
4366;DHT22;2196;47.422;9.656;2023-01-08T01:37:35;1.80;99.90
4366;DHT22;2196;47.422;9.656;2023-01-08T01:40:02;1.80;99.90
4366;DHT22;2196;47.422;9.656;2023-01-08T01:42:29;1.70;99.90
4366;DHT22;2196;47.422;9.656;2023-01-08T01:45:14;1.70;99.90
4366;DHT22;2196;47.422;9.656;2023-01-08T01:47:43;1.70;99.90
4366;DHT22;2196;47.422;9.656;2023-01-08T01:50:15;1.70;99.90
4366;DHT22;2196;47.422;9.656;2023-01-08T01:52:47;1.80;99.90
4366;DHT22;2196;47.422;9.656;2023-01-08T01:55:15;1.70;99.90
4366;DHT22;2196;47.422;9.656;2023-01-08T01:57:47;1.60;99.90
4366;DHT22;2196;47.422;9.656;2023-01-08T02:00:16;1.60;99.90
4366;DHT22;2196;47.422;9.656;2023-01-08T02:02:44;1.60;99.90
4366;DHT22;2196;47.422;9.656;2023-01-08T02:05:11;1.60;99.90
4366;DHT22;2196;47.422;9.656;2023-01-08T02:07:42;1.50;99.90
4366;DHT22;2196;47.422;9.656;2023-01-08T02:10:18;1.50;99.90
4366;DHT22;2196;47.422;9.656;2023-01-08T02:12:49;1.50;99.90
4366;DHT22;2196;47.422;9.656;2023-01-08T02:15:23;1.40;99.90
4366;DHT22;2196;47.422;9.656;2023-01-08T02:17:54;1.40;99.90
4366;DHT22;2196;47.422;9.656;2023-01-08T02:20:27;1.40;99.90
4366;DHT22;2196;47.422;9.656;2023-01-08T02:23:11;1.40;99.90
4366;DHT22;2196;47.422;9.656;2023-01-08T02:26:03;1.40;99.90
4366;DHT22;2196;47.422;9.656;2023-01-08T02:28:35;1.30;99.90
4366;DHT22;2196;47.422;9.656;2023-01-08T02:31:05;1.30;99.90
4366;DHT22;2196;47.422;9.656;2023-01-08T02:33:32;1.30;99.90
4366;DHT22;2196;47.422;9.656;2023-01-08T02:39:20;1.30;99.90
4366;DHT22;2196;47.422;9.656;2023-01-08T02:42:10;1.20;99.90
4366;DHT22;2196;47.422;9.656;2023-01-08T02:44:49;1.30;99.90
4366;DHT22;2196;47.422;9.656;2023-01-08T02:47:24;1.30;99.90
4366;DHT22;2196;47.422;9.656;2023-01-08T02:49:59;1.40;99.90
4366;DHT22;2196;47.422;9.656;2023-01-08T02:52:29;1.50;99.90
4366;DHT22;2196;47.422;9.656;2023-01-08T02:54:58;1.50;99.90
4366;DHT22;2196;47.422;9.656;2023-01-08T02:57:31;1.50;99.90
4366;DHT22;2196;47.422;9.656;2023-01-08T02:59:59;1.60;99.90
4366;DHT22;2196;47.422;9.656;2023-01-08T03:02:29;1.60;99.90
4366;DHT22;2196;47.422;9.656;2023-01-08T03:05:02;1.50;99.90
4366;DHT22;2196;47.422;9.656;2023-01-08T03:07:31;1.40;99.90
4366;DHT22;2196;47.422;9.656;2023-01-08T03:09:58;1.30;99.90
4366;DHT22;2196;47.422;9.656;2023-01-08T03:12:37;1.30;99.90
4366;DHT22;2196;47.422;9.656;2023-01-08T03:15:10;1.10;99.90
4366;DHT22;2196;47.422;9.656;2023-01-08T03:17:42;1.10;99.90
4366;DHT22;2196;47.422;9.656;2023-01-08T03:20:13;1.00;99.90
4366;DHT22;2196;47.422;9.656;2023-01-08T03:22:43;1.00;99.90
4366;DHT22;2196;47.422;9.656;2023-01-08T03:25:12;1.00;99.90
4366;DHT22;2196;47.422;9.656;2023-01-08T03:27:44;1.00;99.90
4366;DHT22;2196;47.422;9.656;2023-01-08T03:30:14;1.10;99.90
4366;DHT22;2196;47.422;9.656;2023-01-08T03:32:44;1.10;99.90
4366;DHT22;2196;47.422;9.656;2023-01-08T03:35:13;1.10;99.90
4366;DHT22;2196;47.422;9.656;2023-01-08T03:37:46;1.10;99.90
4366;DHT22;2196;47.422;9.656;2023-01-08T03:40:18;1.10;99.90
4366;DHT22;2196;47.422;9.656;2023-01-08T03:42:47;1.20;99.90
4366;DHT22;2196;47.422;9.656;2023-01-08T03:45:14;1.10;99.90
4366;DHT22;2196;47.422;9.656;2023-01-08T03:47:42;1.10;99.90
4366;DHT22;2196;47.422;9.656;2023-01-08T03:50:14;1.20;99.90
4366;DHT22;2196;47.422;9.656;2023-01-08T03:52:42;1.20;99.90
4366;DHT22;2196;47.422;9.656;2023-01-08T03:55:09;1.20;99.90
4366;DHT22;2196;47.422;9.656;2023-01-08T03:57:36;1.10;99.90
4366;DHT22;2196;47.422;9.656;2023-01-08T04:00:06;1.10;99.90
4366;DHT22;2196;47.422;9.656;2023-01-08T04:02:33;1.00;99.90
4366;DHT22;2196;47.422;9.656;2023-01-08T04:05:00;1.00;99.90
4366;DHT22;2196;47.422;9.656;2023-01-08T04:07:27;1.10;99.90
4366;DHT22;2196;47.422;9.656;2023-01-08T04:09:54;1.10;99.90
4366;DHT22;2196;47.422;9.656;2023-01-08T04:12:21;1.30;99.90
4366;DHT22;2196;47.422;9.656;2023-01-08T04:14:49;1.30;99.90
4366;DHT22;2196;47.422;9.656;2023-01-08T04:17:17;1.30;99.90
4366;DHT22;2196;47.422;9.656;2023-01-08T04:19:44;1.30;99.90
4366;DHT22;2196;47.422;9.656;2023-01-08T04:22:11;1.30;99.90
4366;DHT22;2196;47.422;9.656;2023-01-08T04:24:38;1.30;99.90
4366;DHT22;2196;47.422;9.656;2023-01-08T04:27:05;1.20;99.90
4366;DHT22;2196;47.422;9.656;2023-01-08T04:29:32;1.10;99.90
4366;DHT22;2196;47.422;9.656;2023-01-08T04:32:00;1.00;99.90
4366;DHT22;2196;47.422;9.656;2023-01-08T04:34:32;1.00;99.90
4366;DHT22;2196;47.422;9.656;2023-01-08T04:36:59;1.00;99.90
4366;DHT22;2196;47.422;9.656;2023-01-08T04:39:26;0.90;99.90
4366;DHT22;2196;47.422;9.656;2023-01-08T04:41:53;0.90;99.90
4366;DHT22;2196;47.422;9.656;2023-01-08T04:44:20;0.80;99.90
4366;DHT22;2196;47.422;9.656;2023-01-08T04:46:47;0.70;99.90
4366;DHT22;2196;47.422;9.656;2023-01-08T04:49:14;0.70;99.90
4366;DHT22;2196;47.422;9.656;2023-01-08T04:51:43;0.80;99.90
4366;DHT22;2196;47.422;9.656;2023-01-08T04:54:10;0.90;99.90
4366;DHT22;2196;47.422;9.656;2023-01-08T04:56:37;0.90;99.90
4366;DHT22;2196;47.422;9.656;2023-01-08T04:59:04;0.90;99.90
4366;DHT22;2196;47.422;9.656;2023-01-08T05:01:31;0.90;99.90
4366;DHT22;2196;47.422;9.656;2023-01-08T05:03:59;0.90;99.90
4366;DHT22;2196;47.422;9.656;2023-01-08T05:06:28;1.00;99.90
4366;DHT22;2196;47.422;9.656;2023-01-08T05:08:56;1.10;99.90
4366;DHT22;2196;47.422;9.656;2023-01-08T05:11:24;1.10;99.90
4366;DHT22;2196;47.422;9.656;2023-01-08T05:13:52;1.30;99.90
4366;DHT22;2196;47.422;9.656;2023-01-08T05:16:19;1.40;99.90
4366;DHT22;2196;47.422;9.656;2023-01-08T05:18:46;1.50;99.90
4366;DHT22;2196;47.422;9.656;2023-01-08T05:21:13;1.60;99.90
4366;DHT22;2196;47.422;9.656;2023-01-08T05:23:44;1.80;99.90
4366;DHT22;2196;47.422;9.656;2023-01-08T05:26:13;1.80;99.90
4366;DHT22;2196;47.422;9.656;2023-01-08T05:28:40;1.90;99.90
4366;DHT22;2196;47.422;9.656;2023-01-08T05:31:07;2.10;99.90
4366;DHT22;2196;47.422;9.656;2023-01-08T05:33:36;2.10;99.90
4366;DHT22;2196;47.422;9.656;2023-01-08T05:36:04;2.20;99.90
4366;DHT22;2196;47.422;9.656;2023-01-08T05:38:31;2.20;99.90
4366;DHT22;2196;47.422;9.656;2023-01-08T05:40:59;2.30;99.90
4366;DHT22;2196;47.422;9.656;2023-01-08T05:43:27;2.20;99.90
4366;DHT22;2196;47.422;9.656;2023-01-08T05:45:57;2.30;99.90
4366;DHT22;2196;47.422;9.656;2023-01-08T05:48:24;2.30;99.90
4366;DHT22;2196;47.422;9.656;2023-01-08T05:50:51;2.30;99.90
4366;DHT22;2196;47.422;9.656;2023-01-08T05:53:18;2.40;99.90
4366;DHT22;2196;47.422;9.656;2023-01-08T05:55:46;2.40;99.90
4366;DHT22;2196;47.422;9.656;2023-01-08T05:58:14;2.30;99.90
4366;DHT22;2196;47.422;9.656;2023-01-08T06:00:45;2.30;99.90
4366;DHT22;2196;47.422;9.656;2023-01-08T06:03:12;2.40;99.90
4366;DHT22;2196;47.422;9.656;2023-01-08T06:05:39;2.50;99.90
4366;DHT22;2196;47.422;9.656;2023-01-08T06:08:06;2.40;99.90
4366;DHT22;2196;47.422;9.656;2023-01-08T06:10:33;2.30;99.90
4366;DHT22;2196;47.422;9.656;2023-01-08T06:13:00;2.30;99.90
4366;DHT22;2196;47.422;9.656;2023-01-08T06:15:27;2.30;99.90
4366;DHT22;2196;47.422;9.656;2023-01-08T06:18:01;2.20;99.90
4366;DHT22;2196;47.422;9.656;2023-01-08T06:20:28;2.20;99.90
4366;DHT22;2196;47.422;9.656;2023-01-08T06:22:56;2.20;99.90
4366;DHT22;2196;47.422;9.656;2023-01-08T06:25:23;2.20;99.90
4366;DHT22;2196;47.422;9.656;2023-01-08T06:27:50;2.30;99.90
4366;DHT22;2196;47.422;9.656;2023-01-08T06:30:17;2.40;99.90
4366;DHT22;2196;47.422;9.656;2023-01-08T06:32:45;2.40;99.90
4366;DHT22;2196;47.422;9.656;2023-01-08T06:35:13;2.30;99.90
4366;DHT22;2196;47.422;9.656;2023-01-08T06:37:40;2.30;99.90
4366;DHT22;2196;47.422;9.656;2023-01-08T06:40:08;2.50;99.90
4366;DHT22;2196;47.422;9.656;2023-01-08T06:42:35;2.50;99.90
4366;DHT22;2196;47.422;9.656;2023-01-08T06:45:03;2.40;99.90
4366;DHT22;2196;47.422;9.656;2023-01-08T06:47:31;2.40;99.90
4366;DHT22;2196;47.422;9.656;2023-01-08T06:49:58;2.50;99.90
4366;DHT22;2196;47.422;9.656;2023-01-08T06:52:27;2.60;99.90
4366;DHT22;2196;47.422;9.656;2023-01-08T06:54:54;2.60;99.90
4366;DHT22;2196;47.422;9.656;2023-01-08T06:57:21;2.60;99.90
4366;DHT22;2196;47.422;9.656;2023-01-08T06:59:48;2.50;99.90
4366;DHT22;2196;47.422;9.656;2023-01-08T07:02:16;2.60;99.90
4366;DHT22;2196;47.422;9.656;2023-01-08T07:04:44;2.80;99.90
4366;DHT22;2196;47.422;9.656;2023-01-08T07:07:12;2.90;99.90
4366;DHT22;2196;47.422;9.656;2023-01-08T07:09:41;2.90;99.90
4366;DHT22;2196;47.422;9.656;2023-01-08T07:12:11;2.90;99.90
4366;DHT22;2196;47.422;9.656;2023-01-08T07:14:38;2.90;99.90
4366;DHT22;2196;47.422;9.656;2023-01-08T07:17:08;3.00;99.90
4366;DHT22;2196;47.422;9.656;2023-01-08T07:19:35;3.10;99.90
4366;DHT22;2196;47.422;9.656;2023-01-08T07:22:02;3.20;99.90
4366;DHT22;2196;47.422;9.656;2023-01-08T07:24:29;3.20;99.90
4366;DHT22;2196;47.422;9.656;2023-01-08T07:26:57;3.20;99.90
4366;DHT22;2196;47.422;9.656;2023-01-08T07:29:24;3.20;99.90
4366;DHT22;2196;47.422;9.656;2023-01-08T07:31:52;3.30;99.90
4366;DHT22;2196;47.422;9.656;2023-01-08T07:34:19;3.30;99.90
4366;DHT22;2196;47.422;9.656;2023-01-08T07:36:45;3.30;99.90
4366;DHT22;2196;47.422;9.656;2023-01-08T07:39:12;3.30;99.90
4366;DHT22;2196;47.422;9.656;2023-01-08T07:41:39;3.30;99.90
4366;DHT22;2196;47.422;9.656;2023-01-08T07:44:08;3.40;99.90
4366;DHT22;2196;47.422;9.656;2023-01-08T07:46:35;3.30;99.90
4366;DHT22;2196;47.422;9.656;2023-01-08T07:49:02;3.40;99.90
4366;DHT22;2196;47.422;9.656;2023-01-08T07:51:30;3.60;99.90
4366;DHT22;2196;47.422;9.656;2023-01-08T07:53:57;3.70;99.90
4366;DHT22;2196;47.422;9.656;2023-01-08T07:56:24;3.60;99.90
4366;DHT22;2196;47.422;9.656;2023-01-08T07:58:51;3.60;99.90
4366;DHT22;2196;47.422;9.656;2023-01-08T08:01:19;3.60;99.90
4366;DHT22;2196;47.422;9.656;2023-01-08T08:03:46;3.70;99.90
4366;DHT22;2196;47.422;9.656;2023-01-08T08:06:14;3.70;99.90
4366;DHT22;2196;47.422;9.656;2023-01-08T08:08:41;3.70;99.90
4366;DHT22;2196;47.422;9.656;2023-01-08T08:11:07;3.70;99.90
4366;DHT22;2196;47.422;9.656;2023-01-08T08:13:34;3.70;99.90
4366;DHT22;2196;47.422;9.656;2023-01-08T08:16:02;3.70;99.90
4366;DHT22;2196;47.422;9.656;2023-01-08T08:18:31;3.70;99.90
4366;DHT22;2196;47.422;9.656;2023-01-08T08:20:58;3.70;99.90
4366;DHT22;2196;47.422;9.656;2023-01-08T08:23:25;3.80;99.90
4366;DHT22;2196;47.422;9.656;2023-01-08T08:25:52;3.80;99.90
4366;DHT22;2196;47.422;9.656;2023-01-08T08:28:19;3.90;99.90
4366;DHT22;2196;47.422;9.656;2023-01-08T08:30:46;3.90;99.90
4366;DHT22;2196;47.422;9.656;2023-01-08T08:33:13;3.90;99.90
4366;DHT22;2196;47.422;9.656;2023-01-08T08:35:47;4.00;99.90
4366;DHT22;2196;47.422;9.656;2023-01-08T08:38:14;4.10;99.90
4366;DHT22;2196;47.422;9.656;2023-01-08T08:40:42;4.20;99.90
4366;DHT22;2196;47.422;9.656;2023-01-08T08:43:09;4.40;99.90
4366;DHT22;2196;47.422;9.656;2023-01-08T08:45:36;4.40;99.90
4366;DHT22;2196;47.422;9.656;2023-01-08T08:48:05;4.40;99.90
4366;DHT22;2196;47.422;9.656;2023-01-08T08:50:32;4.30;99.90
4366;DHT22;2196;47.422;9.656;2023-01-08T08:53:01;4.30;99.90
4366;DHT22;2196;47.422;9.656;2023-01-08T08:55:28;4.20;99.90
4366;DHT22;2196;47.422;9.656;2023-01-08T08:58:01;4.10;99.90
4366;DHT22;2196;47.422;9.656;2023-01-08T09:00:29;4.00;99.90
4366;DHT22;2196;47.422;9.656;2023-01-08T09:02:56;3.90;99.90
4366;DHT22;2196;47.422;9.656;2023-01-08T09:05:23;3.90;99.90
4366;DHT22;2196;47.422;9.656;2023-01-08T09:07:50;4.00;99.90
4366;DHT22;2196;47.422;9.656;2023-01-08T09:10:20;4.00;99.90
4366;DHT22;2196;47.422;9.656;2023-01-08T09:12:47;4.00;99.90
4366;DHT22;2196;47.422;9.656;2023-01-08T09:15:14;4.00;99.90
4366;DHT22;2196;47.422;9.656;2023-01-08T09:17:41;4.00;99.90
4366;DHT22;2196;47.422;9.656;2023-01-08T09:20:09;4.10;99.90
4366;DHT22;2196;47.422;9.656;2023-01-08T09:22:36;4.20;99.90
4366;DHT22;2196;47.422;9.656;2023-01-08T09:25:04;4.20;99.90
4366;DHT22;2196;47.422;9.656;2023-01-08T09:27:32;4.30;99.90
4366;DHT22;2196;47.422;9.656;2023-01-08T09:29:59;4.40;99.90
4366;DHT22;2196;47.422;9.656;2023-01-08T09:32:26;4.50;99.90
4366;DHT22;2196;47.422;9.656;2023-01-08T09:34:53;4.60;99.90
4366;DHT22;2196;47.422;9.656;2023-01-08T09:37:20;4.60;99.90
4366;DHT22;2196;47.422;9.656;2023-01-08T09:39:48;4.40;99.90
4366;DHT22;2196;47.422;9.656;2023-01-08T09:42:19;4.30;99.90
4366;DHT22;2196;47.422;9.656;2023-01-08T09:44:51;4.40;99.90
4366;DHT22;2196;47.422;9.656;2023-01-08T09:47:23;4.40;99.90
4366;DHT22;2196;47.422;9.656;2023-01-08T09:49:53;4.30;99.90
4366;DHT22;2196;47.422;9.656;2023-01-08T09:52:21;4.40;99.90
4366;DHT22;2196;47.422;9.656;2023-01-08T09:54:48;4.40;99.90
4366;DHT22;2196;47.422;9.656;2023-01-08T09:57:17;4.40;99.90
4366;DHT22;2196;47.422;9.656;2023-01-08T09:59:45;4.40;99.90
4366;DHT22;2196;47.422;9.656;2023-01-08T10:02:15;4.40;99.90
4366;DHT22;2196;47.422;9.656;2023-01-08T10:04:43;4.40;99.90
4366;DHT22;2196;47.422;9.656;2023-01-08T10:07:14;4.50;99.90
4366;DHT22;2196;47.422;9.656;2023-01-08T10:09:46;4.60;99.90
4366;DHT22;2196;47.422;9.656;2023-01-08T10:12:17;4.60;99.90
4366;DHT22;2196;47.422;9.656;2023-01-08T10:14:46;4.80;99.90
4366;DHT22;2196;47.422;9.656;2023-01-08T10:17:24;4.90;99.90
4366;DHT22;2196;47.422;9.656;2023-01-08T10:19:52;4.90;99.90
4366;DHT22;2196;47.422;9.656;2023-01-08T10:22:22;5.10;99.90
4366;DHT22;2196;47.422;9.656;2023-01-08T10:24:50;5.10;99.90
4366;DHT22;2196;47.422;9.656;2023-01-08T10:27:18;5.20;99.90
4366;DHT22;2196;47.422;9.656;2023-01-08T10:29:46;5.30;99.90
4366;DHT22;2196;47.422;9.656;2023-01-08T10:32:14;5.30;99.90
4366;DHT22;2196;47.422;9.656;2023-01-08T10:34:45;5.40;99.90
4366;DHT22;2196;47.422;9.656;2023-01-08T10:37:14;5.50;99.90
4366;DHT22;2196;47.422;9.656;2023-01-08T10:39:45;5.50;99.90
4366;DHT22;2196;47.422;9.656;2023-01-08T10:42:12;5.40;99.90
4366;DHT22;2196;47.422;9.656;2023-01-08T10:44:50;5.50;99.90
4366;DHT22;2196;47.422;9.656;2023-01-08T10:47:18;5.40;99.90
4366;DHT22;2196;47.422;9.656;2023-01-08T10:49:46;5.40;99.90
4366;DHT22;2196;47.422;9.656;2023-01-08T10:52:26;5.30;99.90
4366;DHT22;2196;47.422;9.656;2023-01-08T10:54:53;5.40;99.90
4366;DHT22;2196;47.422;9.656;2023-01-08T10:57:23;5.40;99.90
4366;DHT22;2196;47.422;9.656;2023-01-08T10:59:50;5.40;99.90
4366;DHT22;2196;47.422;9.656;2023-01-08T11:02:29;5.40;99.90
4366;DHT22;2196;47.422;9.656;2023-01-08T11:04:58;5.40;99.90
4366;DHT22;2196;47.422;9.656;2023-01-08T11:07:26;5.40;99.90
4366;DHT22;2196;47.422;9.656;2023-01-08T11:09:54;5.40;99.90
4366;DHT22;2196;47.422;9.656;2023-01-08T11:12:33;5.40;99.90
4366;DHT22;2196;47.422;9.656;2023-01-08T11:15:01;5.40;99.90
4366;DHT22;2196;47.422;9.656;2023-01-08T11:17:28;5.30;99.90
4366;DHT22;2196;47.422;9.656;2023-01-08T11:20:09;5.40;99.90
4366;DHT22;2196;47.422;9.656;2023-01-08T11:22:44;5.40;99.90
4366;DHT22;2196;47.422;9.656;2023-01-08T11:25:13;5.40;99.90
4366;DHT22;2196;47.422;9.656;2023-01-08T11:27:44;5.50;99.90
4366;DHT22;2196;47.422;9.656;2023-01-08T11:30:14;5.50;99.90
4366;DHT22;2196;47.422;9.656;2023-01-08T11:32:46;5.50;99.90
4366;DHT22;2196;47.422;9.656;2023-01-08T11:35:19;5.60;99.90
4366;DHT22;2196;47.422;9.656;2023-01-08T11:37:50;5.60;99.90
4366;DHT22;2196;47.422;9.656;2023-01-08T11:40:25;5.60;99.90
4366;DHT22;2196;47.422;9.656;2023-01-08T11:43:07;5.70;99.90
4366;DHT22;2196;47.422;9.656;2023-01-08T11:45:48;5.70;99.90
4366;DHT22;2196;47.422;9.656;2023-01-08T11:48:34;5.70;99.90
4366;DHT22;2196;47.422;9.656;2023-01-08T11:51:23;5.70;99.90
4366;DHT22;2196;47.422;9.656;2023-01-08T11:53:56;5.90;99.90
4366;DHT22;2196;47.422;9.656;2023-01-08T11:56:38;5.90;99.90
4366;DHT22;2196;47.422;9.656;2023-01-08T11:59:15;5.90;99.90
4366;DHT22;2196;47.422;9.656;2023-01-08T12:01:52;5.90;99.90
4366;DHT22;2196;47.422;9.656;2023-01-08T12:04:45;5.80;99.90
4366;DHT22;2196;47.422;9.656;2023-01-08T12:07:20;5.90;99.90
4366;DHT22;2196;47.422;9.656;2023-01-08T12:09:55;5.90;99.90
4366;DHT22;2196;47.422;9.656;2023-01-08T12:12:38;5.90;99.90
4366;DHT22;2196;47.422;9.656;2023-01-08T12:15:14;6.00;99.90
4366;DHT22;2196;47.422;9.656;2023-01-08T12:18:03;6.00;99.90
4366;DHT22;2196;47.422;9.656;2023-01-08T12:20:36;5.90;99.90
4366;DHT22;2196;47.422;9.656;2023-01-08T12:23:24;5.90;99.90
4366;DHT22;2196;47.422;9.656;2023-01-08T12:26:08;5.90;99.90
4366;DHT22;2196;47.422;9.656;2023-01-08T12:31:42;5.90;99.90
4366;DHT22;2196;47.422;9.656;2023-01-08T12:34:17;6.00;99.90
4366;DHT22;2196;47.422;9.656;2023-01-08T12:36:49;6.10;99.90
4366;DHT22;2196;47.422;9.656;2023-01-08T12:39:24;6.20;99.90
4366;DHT22;2196;47.422;9.656;2023-01-08T12:41:55;6.30;99.90
4366;DHT22;2196;47.422;9.656;2023-01-08T12:44:27;6.40;99.90
4366;DHT22;2196;47.422;9.656;2023-01-08T12:46:56;6.50;99.90
4366;DHT22;2196;47.422;9.656;2023-01-08T12:49:28;6.60;99.90
4366;DHT22;2196;47.422;9.656;2023-01-08T12:52:07;6.70;99.90
4366;DHT22;2196;47.422;9.656;2023-01-08T12:54:45;6.70;99.90
4366;DHT22;2196;47.422;9.656;2023-01-08T12:57:18;6.70;99.90
4366;DHT22;2196;47.422;9.656;2023-01-08T12:59:55;6.70;99.90
4366;DHT22;2196;47.422;9.656;2023-01-08T13:02:32;6.90;99.90
4366;DHT22;2196;47.422;9.656;2023-01-08T13:05:11;7.00;99.90
4366;DHT22;2196;47.422;9.656;2023-01-08T13:07:43;7.00;99.90
4366;DHT22;2196;47.422;9.656;2023-01-08T13:10:25;7.10;99.90
4366;DHT22;2196;47.422;9.656;2023-01-08T13:12:55;7.00;99.90
4366;DHT22;2196;47.422;9.656;2023-01-08T13:15:24;7.00;99.90
4366;DHT22;2196;47.422;9.656;2023-01-08T13:17:53;6.90;99.90
4366;DHT22;2196;47.422;9.656;2023-01-08T13:20:23;7.00;99.90
4366;DHT22;2196;47.422;9.656;2023-01-08T13:22:52;7.00;99.90
4366;DHT22;2196;47.422;9.656;2023-01-08T13:25:30;7.00;99.90
4366;DHT22;2196;47.422;9.656;2023-01-08T13:27:58;7.00;99.90
4366;DHT22;2196;47.422;9.656;2023-01-08T13:30:37;7.00;99.90
4366;DHT22;2196;47.422;9.656;2023-01-08T13:33:25;7.00;99.90
4366;DHT22;2196;47.422;9.656;2023-01-08T13:36:05;7.00;99.90
4366;DHT22;2196;47.422;9.656;2023-01-08T13:38:32;7.00;99.90
4366;DHT22;2196;47.422;9.656;2023-01-08T13:41:01;6.90;99.90
4366;DHT22;2196;47.422;9.656;2023-01-08T13:43:29;6.90;99.90
4366;DHT22;2196;47.422;9.656;2023-01-08T13:46:12;6.90;99.90
4366;DHT22;2196;47.422;9.656;2023-01-08T13:48:48;6.90;99.90
4366;DHT22;2196;47.422;9.656;2023-01-08T13:51:40;6.90;99.90
4366;DHT22;2196;47.422;9.656;2023-01-08T13:54:18;7.00;99.90
4366;DHT22;2196;47.422;9.656;2023-01-08T13:56:52;7.10;99.90
4366;DHT22;2196;47.422;9.656;2023-01-08T13:59:29;7.20;99.90
4366;DHT22;2196;47.422;9.656;2023-01-08T14:01:57;7.10;99.90
4366;DHT22;2196;47.422;9.656;2023-01-08T14:04:26;7.20;99.90
4366;DHT22;2196;47.422;9.656;2023-01-08T14:07:04;7.20;99.90
4366;DHT22;2196;47.422;9.656;2023-01-08T14:09:34;7.20;99.90
4366;DHT22;2196;47.422;9.656;2023-01-08T14:12:10;7.10;99.90
4366;DHT22;2196;47.422;9.656;2023-01-08T14:14:42;7.10;99.90
4366;DHT22;2196;47.422;9.656;2023-01-08T14:17:13;7.10;99.90
4366;DHT22;2196;47.422;9.656;2023-01-08T14:19:42;7.20;99.90
4366;DHT22;2196;47.422;9.656;2023-01-08T14:22:15;7.20;99.90
4366;DHT22;2196;47.422;9.656;2023-01-08T14:24:43;7.20;99.90
4366;DHT22;2196;47.422;9.656;2023-01-08T14:27:21;7.10;99.90
4366;DHT22;2196;47.422;9.656;2023-01-08T14:29:49;7.10;99.90
4366;DHT22;2196;47.422;9.656;2023-01-08T14:32:17;7.10;99.90
4366;DHT22;2196;47.422;9.656;2023-01-08T14:34:45;7.10;99.90
4366;DHT22;2196;47.422;9.656;2023-01-08T14:37:13;7.10;99.90
4366;DHT22;2196;47.422;9.656;2023-01-08T14:39:41;7.10;99.90
4366;DHT22;2196;47.422;9.656;2023-01-08T14:42:14;7.10;99.90
4366;DHT22;2196;47.422;9.656;2023-01-08T14:45:02;7.10;99.90
4366;DHT22;2196;47.422;9.656;2023-01-08T14:47:32;7.20;99.90
4366;DHT22;2196;47.422;9.656;2023-01-08T14:50:00;7.20;99.90
4366;DHT22;2196;47.422;9.656;2023-01-08T14:52:27;7.20;99.90
4366;DHT22;2196;47.422;9.656;2023-01-08T14:54:56;7.30;99.90
4366;DHT22;2196;47.422;9.656;2023-01-08T14:57:26;7.30;99.90
4366;DHT22;2196;47.422;9.656;2023-01-08T14:59:55;7.30;99.90
4366;DHT22;2196;47.422;9.656;2023-01-08T15:02:28;7.20;99.90
4366;DHT22;2196;47.422;9.656;2023-01-08T15:05:14;7.20;99.90
4366;DHT22;2196;47.422;9.656;2023-01-08T15:07:42;7.20;99.90
4366;DHT22;2196;47.422;9.656;2023-01-08T15:10:38;7.10;99.90
4366;DHT22;2196;47.422;9.656;2023-01-08T15:13:06;7.00;99.90
4366;DHT22;2196;47.422;9.656;2023-01-08T15:15:50;6.90;99.90
4366;DHT22;2196;47.422;9.656;2023-01-08T15:18:20;6.90;99.90
4366;DHT22;2196;47.422;9.656;2023-01-08T15:20:47;7.00;99.90
4366;DHT22;2196;47.422;9.656;2023-01-08T15:23:25;6.90;99.90
4366;DHT22;2196;47.422;9.656;2023-01-08T15:25:54;6.90;99.90
4366;DHT22;2196;47.422;9.656;2023-01-08T15:28:21;6.80;99.90
4366;DHT22;2196;47.422;9.656;2023-01-08T15:30:49;6.70;99.90
4366;DHT22;2196;47.422;9.656;2023-01-08T15:33:20;6.70;99.90
4366;DHT22;2196;47.422;9.656;2023-01-08T15:35:48;6.60;99.90
4366;DHT22;2196;47.422;9.656;2023-01-08T15:38:15;6.60;99.90
4366;DHT22;2196;47.422;9.656;2023-01-08T15:40:43;6.50;99.90
4366;DHT22;2196;47.422;9.656;2023-01-08T15:43:12;6.50;99.90
4366;DHT22;2196;47.422;9.656;2023-01-08T15:45:41;6.50;99.90
4366;DHT22;2196;47.422;9.656;2023-01-08T15:48:09;6.50;99.90
4366;DHT22;2196;47.422;9.656;2023-01-08T15:50:38;6.40;99.90
4366;DHT22;2196;47.422;9.656;2023-01-08T15:53:09;6.40;99.90
4366;DHT22;2196;47.422;9.656;2023-01-08T15:55:38;6.30;99.90
4366;DHT22;2196;47.422;9.656;2023-01-08T15:58:09;6.30;99.90
4366;DHT22;2196;47.422;9.656;2023-01-08T16:00:36;6.20;99.90
4366;DHT22;2196;47.422;9.656;2023-01-08T16:03:04;6.10;99.90
4366;DHT22;2196;47.422;9.656;2023-01-08T16:05:33;6.10;99.90
4366;DHT22;2196;47.422;9.656;2023-01-08T16:08:03;6.00;99.90
4366;DHT22;2196;47.422;9.656;2023-01-08T16:10:30;5.90;99.90
4366;DHT22;2196;47.422;9.656;2023-01-08T16:12:58;5.80;99.90
4366;DHT22;2196;47.422;9.656;2023-01-08T16:15:25;5.80;99.90
4366;DHT22;2196;47.422;9.656;2023-01-08T16:17:55;5.80;99.90
4366;DHT22;2196;47.422;9.656;2023-01-08T16:20:22;5.80;99.90
4366;DHT22;2196;47.422;9.656;2023-01-08T16:22:49;5.70;99.90
4366;DHT22;2196;47.422;9.656;2023-01-08T16:25:18;5.70;99.90
4366;DHT22;2196;47.422;9.656;2023-01-08T16:27:45;5.70;99.90
4366;DHT22;2196;47.422;9.656;2023-01-08T16:30:13;5.70;99.90
4366;DHT22;2196;47.422;9.656;2023-01-08T16:32:40;5.70;99.90
4366;DHT22;2196;47.422;9.656;2023-01-08T16:35:08;5.60;99.90
4366;DHT22;2196;47.422;9.656;2023-01-08T16:37:35;5.70;99.90
4366;DHT22;2196;47.422;9.656;2023-01-08T16:40:03;5.70;99.90
4366;DHT22;2196;47.422;9.656;2023-01-08T16:42:31;5.70;99.90